sensor_id;sensor_type;location;lat;lon;timestamp;P1;durP1;ratioP1;P2;durP2;ratioP2
12577;SDS011;6354;51.026;8.968;2022-08-03T00:01:42;4.15;;;3.80;;
12577;SDS011;6354;51.026;8.968;2022-08-03T00:04:11;3.95;;;3.42;;
12577;SDS011;6354;51.026;8.968;2022-08-03T00:06:39;4.50;;;3.30;;
12577;SDS011;6354;51.026;8.968;2022-08-03T00:09:07;7.13;;;3.40;;
12577;SDS011;6354;51.026;8.968;2022-08-03T00:11:35;4.20;;;3.25;;
12577;SDS011;6354;51.026;8.968;2022-08-03T00:14:03;5.00;;;3.63;;
12577;SDS011;6354;51.026;8.968;2022-08-03T00:16:33;5.38;;;3.67;;
12577;SDS011;6354;51.026;8.968;2022-08-03T00:19:01;4.10;;;3.70;;
12577;SDS011;6354;51.026;8.968;2022-08-03T00:21:30;5.03;;;3.47;;
12577;SDS011;6354;51.026;8.968;2022-08-03T00:23:58;6.38;;;3.70;;
12577;SDS011;6354;51.026;8.968;2022-08-03T00:26:26;7.55;;;3.53;;
12577;SDS011;6354;51.026;8.968;2022-08-03T00:28:54;5.07;;;3.70;;
12577;SDS011;6354;51.026;8.968;2022-08-03T00:31:22;5.22;;;3.50;;
12577;SDS011;6354;51.026;8.968;2022-08-03T00:34:11;4.68;;;3.80;;
12577;SDS011;6354;51.026;8.968;2022-08-03T00:36:39;5.57;;;3.40;;
12577;SDS011;6354;51.026;8.968;2022-08-03T00:39:08;4.32;;;3.75;;
12577;SDS011;6354;51.026;8.968;2022-08-03T00:41:36;4.28;;;3.33;;
12577;SDS011;6354;51.026;8.968;2022-08-03T00:44:04;4.13;;;3.72;;
12577;SDS011;6354;51.026;8.968;2022-08-03T00:46:32;4.22;;;3.83;;
12577;SDS011;6354;51.026;8.968;2022-08-03T00:49:00;5.53;;;3.50;;
12577;SDS011;6354;51.026;8.968;2022-08-03T00:51:30;3.90;;;3.50;;
12577;SDS011;6354;51.026;8.968;2022-08-03T00:53:59;7.43;;;3.70;;
12577;SDS011;6354;51.026;8.968;2022-08-03T00:56:27;4.97;;;3.40;;
12577;SDS011;6354;51.026;8.968;2022-08-03T00:58:55;6.38;;;3.85;;
12577;SDS011;6354;51.026;8.968;2022-08-03T01:01:25;6.85;;;3.80;;
12577;SDS011;6354;51.026;8.968;2022-08-03T01:03:57;4.50;;;3.78;;
12577;SDS011;6354;51.026;8.968;2022-08-03T01:06:28;3.67;;;3.38;;
12577;SDS011;6354;51.026;8.968;2022-08-03T01:09:08;6.72;;;3.63;;
12577;SDS011;6354;51.026;8.968;2022-08-03T01:11:46;4.85;;;3.50;;
12577;SDS011;6354;51.026;8.968;2022-08-03T01:14:31;4.47;;;3.60;;
12577;SDS011;6354;51.026;8.968;2022-08-03T01:17:07;3.83;;;3.53;;
12577;SDS011;6354;51.026;8.968;2022-08-03T01:19:44;5.97;;;3.22;;
12577;SDS011;6354;51.026;8.968;2022-08-03T01:22:31;4.13;;;3.40;;
12577;SDS011;6354;51.026;8.968;2022-08-03T01:25:13;5.40;;;3.60;;
12577;SDS011;6354;51.026;8.968;2022-08-03T01:27:53;4.55;;;3.70;;
12577;SDS011;6354;51.026;8.968;2022-08-03T01:30:30;4.70;;;3.42;;
12577;SDS011;6354;51.026;8.968;2022-08-03T01:33:01;4.13;;;3.55;;
12577;SDS011;6354;51.026;8.968;2022-08-03T01:35:32;3.20;;;3.00;;
12577;SDS011;6354;51.026;8.968;2022-08-03T01:38:06;4.65;;;3.60;;
12577;SDS011;6354;51.026;8.968;2022-08-03T01:40:38;3.60;;;3.30;;
12577;SDS011;6354;51.026;8.968;2022-08-03T01:43:08;6.40;;;3.50;;
12577;SDS011;6354;51.026;8.968;2022-08-03T01:46:02;3.83;;;3.40;;
12577;SDS011;6354;51.026;8.968;2022-08-03T01:48:32;4.47;;;3.58;;
12577;SDS011;6354;51.026;8.968;2022-08-03T01:51:01;4.45;;;3.30;;
12577;SDS011;6354;51.026;8.968;2022-08-03T01:53:31;4.53;;;3.75;;
12577;SDS011;6354;51.026;8.968;2022-08-03T01:56:01;4.72;;;3.47;;
12577;SDS011;6354;51.026;8.968;2022-08-03T01:58:32;6.32;;;4.28;;
12577;SDS011;6354;51.026;8.968;2022-08-03T02:01:04;5.10;;;3.65;;
12577;SDS011;6354;51.026;8.968;2022-08-03T02:03:34;4.32;;;3.47;;
12577;SDS011;6354;51.026;8.968;2022-08-03T02:06:24;5.13;;;3.97;;
12577;SDS011;6354;51.026;8.968;2022-08-03T02:09:13;4.72;;;3.40;;
12577;SDS011;6354;51.026;8.968;2022-08-03T02:11:43;5.18;;;3.60;;
12577;SDS011;6354;51.026;8.968;2022-08-03T02:14:13;3.83;;;3.35;;
12577;SDS011;6354;51.026;8.968;2022-08-03T02:16:43;3.80;;;3.40;;
12577;SDS011;6354;51.026;8.968;2022-08-03T02:19:12;3.90;;;3.60;;
12577;SDS011;6354;51.026;8.968;2022-08-03T02:21:41;3.95;;;3.47;;
12577;SDS011;6354;51.026;8.968;2022-08-03T02:24:26;4.97;;;3.55;;
12577;SDS011;6354;51.026;8.968;2022-08-03T02:26:55;4.10;;;3.55;;
12577;SDS011;6354;51.026;8.968;2022-08-03T02:29:25;3.95;;;3.58;;
12577;SDS011;6354;51.026;8.968;2022-08-03T02:32:07;4.78;;;3.50;;
12577;SDS011;6354;51.026;8.968;2022-08-03T02:34:38;4.30;;;3.50;;
12577;SDS011;6354;51.026;8.968;2022-08-03T02:37:08;4.72;;;3.60;;
12577;SDS011;6354;51.026;8.968;2022-08-03T02:39:37;3.50;;;3.20;;
12577;SDS011;6354;51.026;8.968;2022-08-03T02:42:07;4.93;;;3.72;;
12577;SDS011;6354;51.026;8.968;2022-08-03T02:44:38;4.00;;;3.33;;
12577;SDS011;6354;51.026;8.968;2022-08-03T02:47:14;4.78;;;3.83;;
12577;SDS011;6354;51.026;8.968;2022-08-03T02:49:46;4.18;;;3.75;;
12577;SDS011;6354;51.026;8.968;2022-08-03T02:52:18;5.97;;;3.80;;
12577;SDS011;6354;51.026;8.968;2022-08-03T02:54:49;5.82;;;3.97;;
12577;SDS011;6354;51.026;8.968;2022-08-03T02:57:19;8.13;;;3.80;;
12577;SDS011;6354;51.026;8.968;2022-08-03T02:59:49;4.22;;;3.83;;
12577;SDS011;6354;51.026;8.968;2022-08-03T03:02:20;4.65;;;3.75;;
12577;SDS011;6354;51.026;8.968;2022-08-03T03:04:50;3.88;;;3.45;;
12577;SDS011;6354;51.026;8.968;2022-08-03T03:07:39;6.18;;;3.90;;
12577;SDS011;6354;51.026;8.968;2022-08-03T03:10:18;4.28;;;3.85;;
12577;SDS011;6354;51.026;8.968;2022-08-03T03:12:48;7.25;;;3.67;;
12577;SDS011;6354;51.026;8.968;2022-08-03T03:15:18;4.10;;;3.72;;
12577;SDS011;6354;51.026;8.968;2022-08-03T03:17:48;4.00;;;3.67;;
12577;SDS011;6354;51.026;8.968;2022-08-03T03:20:18;4.78;;;3.80;;
12577;SDS011;6354;51.026;8.968;2022-08-03T03:22:55;5.15;;;3.78;;
12577;SDS011;6354;51.026;8.968;2022-08-03T03:25:25;4.70;;;4.03;;
12577;SDS011;6354;51.026;8.968;2022-08-03T03:27:54;6.68;;;3.83;;
12577;SDS011;6354;51.026;8.968;2022-08-03T03:30:23;4.20;;;3.90;;
12577;SDS011;6354;51.026;8.968;2022-08-03T03:32:53;4.60;;;4.20;;
12577;SDS011;6354;51.026;8.968;2022-08-03T03:35:22;4.78;;;3.70;;
12577;SDS011;6354;51.026;8.968;2022-08-03T03:37:50;3.90;;;3.60;;
12577;SDS011;6354;51.026;8.968;2022-08-03T03:40:19;4.13;;;3.70;;
12577;SDS011;6354;51.026;8.968;2022-08-03T03:42:47;4.70;;;3.80;;
12577;SDS011;6354;51.026;8.968;2022-08-03T03:45:16;6.93;;;3.88;;
12577;SDS011;6354;51.026;8.968;2022-08-03T03:47:45;3.80;;;3.50;;
12577;SDS011;6354;51.026;8.968;2022-08-03T03:50:15;5.80;;;3.80;;
12577;SDS011;6354;51.026;8.968;2022-08-03T03:52:45;7.90;;;4.60;;
12577;SDS011;6354;51.026;8.968;2022-08-03T03:55:16;4.00;;;3.60;;
12577;SDS011;6354;51.026;8.968;2022-08-03T03:57:44;6.13;;;4.30;;
12577;SDS011;6354;51.026;8.968;2022-08-03T04:00:13;5.78;;;4.20;;
12577;SDS011;6354;51.026;8.968;2022-08-03T04:02:42;6.25;;;4.03;;
12577;SDS011;6354;51.026;8.968;2022-08-03T04:05:11;4.20;;;3.80;;
12577;SDS011;6354;51.026;8.968;2022-08-03T04:07:59;3.97;;;3.58;;
12577;SDS011;6354;51.026;8.968;2022-08-03T04:10:48;5.57;;;3.80;;
12577;SDS011;6354;51.026;8.968;2022-08-03T04:13:26;6.10;;;4.13;;
12577;SDS011;6354;51.026;8.968;2022-08-03T04:15:58;5.07;;;4.22;;
12577;SDS011;6354;51.026;8.968;2022-08-03T04:18:28;4.80;;;4.30;;
12577;SDS011;6354;51.026;8.968;2022-08-03T04:21:00;7.50;;;4.10;;
12577;SDS011;6354;51.026;8.968;2022-08-03T04:23:32;4.65;;;4.25;;
12577;SDS011;6354;51.026;8.968;2022-08-03T04:26:00;4.15;;;3.67;;
12577;SDS011;6354;51.026;8.968;2022-08-03T04:28:29;4.95;;;4.47;;
12577;SDS011;6354;51.026;8.968;2022-08-03T04:30:58;5.03;;;4.15;;
12577;SDS011;6354;51.026;8.968;2022-08-03T04:33:30;4.40;;;4.00;;
12577;SDS011;6354;51.026;8.968;2022-08-03T04:36:03;6.50;;;4.40;;
12577;SDS011;6354;51.026;8.968;2022-08-03T04:38:35;4.95;;;3.63;;
12577;SDS011;6354;51.026;8.968;2022-08-03T04:41:06;4.25;;;3.55;;
12577;SDS011;6354;51.026;8.968;2022-08-03T04:43:35;4.45;;;3.30;;
12577;SDS011;6354;51.026;8.968;2022-08-03T04:46:05;3.70;;;3.22;;
12577;SDS011;6354;51.026;8.968;2022-08-03T04:48:36;3.67;;;3.38;;
12577;SDS011;6354;51.026;8.968;2022-08-03T04:51:09;3.83;;;3.33;;
12577;SDS011;6354;51.026;8.968;2022-08-03T04:53:39;3.42;;;3.10;;
12577;SDS011;6354;51.026;8.968;2022-08-03T04:56:09;4.10;;;3.20;;
12577;SDS011;6354;51.026;8.968;2022-08-03T04:58:37;3.88;;;3.20;;
12577;SDS011;6354;51.026;8.968;2022-08-03T05:01:05;4.05;;;3.38;;
12577;SDS011;6354;51.026;8.968;2022-08-03T05:03:33;3.50;;;2.67;;
12577;SDS011;6354;51.026;8.968;2022-08-03T05:06:02;4.43;;;2.60;;
12577;SDS011;6354;51.026;8.968;2022-08-03T05:08:36;5.57;;;3.25;;
12577;SDS011;6354;51.026;8.968;2022-08-03T05:11:13;3.40;;;3.10;;
12577;SDS011;6354;51.026;8.968;2022-08-03T05:13:42;4.43;;;3.00;;
12577;SDS011;6354;51.026;8.968;2022-08-03T05:16:10;5.50;;;3.50;;
12577;SDS011;6354;51.026;8.968;2022-08-03T05:18:39;6.15;;;2.88;;
12577;SDS011;6354;51.026;8.968;2022-08-03T05:21:07;2.83;;;2.63;;
12577;SDS011;6354;51.026;8.968;2022-08-03T05:23:35;3.00;;;2.70;;
12577;SDS011;6354;51.026;8.968;2022-08-03T05:26:04;2.85;;;2.65;;
12577;SDS011;6354;51.026;8.968;2022-08-03T05:28:33;5.88;;;2.85;;
12577;SDS011;6354;51.026;8.968;2022-08-03T05:31:01;4.68;;;2.80;;
12577;SDS011;6354;51.026;8.968;2022-08-03T05:33:29;3.00;;;2.70;;
12577;SDS011;6354;51.026;8.968;2022-08-03T05:35:57;3.97;;;2.67;;
12577;SDS011;6354;51.026;8.968;2022-08-03T05:38:29;3.13;;;2.80;;
12577;SDS011;6354;51.026;8.968;2022-08-03T05:41:00;4.03;;;2.75;;
12577;SDS011;6354;51.026;8.968;2022-08-03T05:43:50;3.83;;;2.60;;
12577;SDS011;6354;51.026;8.968;2022-08-03T05:46:19;5.57;;;3.30;;
12577;SDS011;6354;51.026;8.968;2022-08-03T05:48:47;3.50;;;2.78;;
12577;SDS011;6354;51.026;8.968;2022-08-03T05:51:15;3.25;;;2.90;;
12577;SDS011;6354;51.026;8.968;2022-08-03T05:53:43;5.05;;;3.33;;
12577;SDS011;6354;51.026;8.968;2022-08-03T05:56:11;3.05;;;2.75;;
12577;SDS011;6354;51.026;8.968;2022-08-03T05:58:42;3.03;;;2.83;;
12577;SDS011;6354;51.026;8.968;2022-08-03T06:01:13;3.90;;;3.08;;
12577;SDS011;6354;51.026;8.968;2022-08-03T06:03:42;3.20;;;2.90;;
12577;SDS011;6354;51.026;8.968;2022-08-03T06:06:10;5.68;;;3.10;;
12577;SDS011;6354;51.026;8.968;2022-08-03T06:08:39;6.22;;;3.10;;
12577;SDS011;6354;51.026;8.968;2022-08-03T06:11:07;3.15;;;2.85;;
12577;SDS011;6354;51.026;8.968;2022-08-03T06:13:35;5.43;;;2.55;;
12577;SDS011;6354;51.026;8.968;2022-08-03T06:16:04;2.90;;;2.60;;
12577;SDS011;6354;51.026;8.968;2022-08-03T06:18:34;2.70;;;2.50;;
12577;SDS011;6354;51.026;8.968;2022-08-03T06:21:02;4.32;;;2.72;;
12577;SDS011;6354;51.026;8.968;2022-08-03T06:23:41;2.83;;;2.38;;
12577;SDS011;6354;51.026;8.968;2022-08-03T06:26:21;3.38;;;2.60;;
12577;SDS011;6354;51.026;8.968;2022-08-03T06:28:53;2.85;;;2.50;;
12577;SDS011;6354;51.026;8.968;2022-08-03T06:31:22;3.88;;;2.60;;
12577;SDS011;6354;51.026;8.968;2022-08-03T06:34:00;3.10;;;2.40;;
12577;SDS011;6354;51.026;8.968;2022-08-03T06:36:50;4.70;;;2.70;;
12577;SDS011;6354;51.026;8.968;2022-08-03T06:39:27;2.60;;;2.40;;
12577;SDS011;6354;51.026;8.968;2022-08-03T06:41:55;2.80;;;2.60;;
12577;SDS011;6354;51.026;8.968;2022-08-03T06:44:23;2.60;;;2.40;;
12577;SDS011;6354;51.026;8.968;2022-08-03T06:46:51;4.00;;;2.60;;
12577;SDS011;6354;51.026;8.968;2022-08-03T06:49:20;3.72;;;2.85;;
12577;SDS011;6354;51.026;8.968;2022-08-03T06:51:49;3.38;;;2.60;;
12577;SDS011;6354;51.026;8.968;2022-08-03T06:54:32;3.72;;;2.95;;
12577;SDS011;6354;51.026;8.968;2022-08-03T06:57:01;3.03;;;2.50;;
12577;SDS011;6354;51.026;8.968;2022-08-03T06:59:29;3.60;;;2.55;;
12577;SDS011;6354;51.026;8.968;2022-08-03T07:02:18;5.57;;;2.97;;
12577;SDS011;6354;51.026;8.968;2022-08-03T07:05:06;3.70;;;2.83;;
12577;SDS011;6354;51.026;8.968;2022-08-03T07:07:35;3.90;;;2.95;;
12577;SDS011;6354;51.026;8.968;2022-08-03T07:10:04;5.63;;;2.90;;
12577;SDS011;6354;51.026;8.968;2022-08-03T07:12:34;5.43;;;3.20;;
12577;SDS011;6354;51.026;8.968;2022-08-03T07:15:20;4.00;;;2.90;;
12577;SDS011;6354;51.026;8.968;2022-08-03T07:18:08;3.13;;;2.80;;
12577;SDS011;6354;51.026;8.968;2022-08-03T07:20:38;4.22;;;2.90;;
12577;SDS011;6354;51.026;8.968;2022-08-03T07:23:06;4.40;;;3.45;;
12577;SDS011;6354;51.026;8.968;2022-08-03T07:25:37;3.35;;;2.97;;
12577;SDS011;6354;51.026;8.968;2022-08-03T07:28:05;3.03;;;2.63;;
12577;SDS011;6354;51.026;8.968;2022-08-03T07:30:33;5.30;;;3.47;;
12577;SDS011;6354;51.026;8.968;2022-08-03T07:33:01;3.35;;;3.00;;
12577;SDS011;6354;51.026;8.968;2022-08-03T07:35:29;3.80;;;3.00;;
12577;SDS011;6354;51.026;8.968;2022-08-03T07:37:59;3.17;;;2.50;;
12577;SDS011;6354;51.026;8.968;2022-08-03T07:40:27;3.75;;;2.80;;
12577;SDS011;6354;51.026;8.968;2022-08-03T07:42:57;3.10;;;2.65;;
12577;SDS011;6354;51.026;8.968;2022-08-03T07:45:26;2.90;;;2.60;;
12577;SDS011;6354;51.026;8.968;2022-08-03T07:47:54;4.45;;;2.60;;
12577;SDS011;6354;51.026;8.968;2022-08-03T07:50:22;2.80;;;2.60;;
12577;SDS011;6354;51.026;8.968;2022-08-03T07:52:50;3.08;;;2.60;;
12577;SDS011;6354;51.026;8.968;2022-08-03T07:55:21;2.75;;;2.55;;
12577;SDS011;6354;51.026;8.968;2022-08-03T07:58:00;3.05;;;2.30;;
12577;SDS011;6354;51.026;8.968;2022-08-03T08:00:30;3.50;;;2.55;;
12577;SDS011;6354;51.026;8.968;2022-08-03T08:02:58;3.00;;;2.63;;
12577;SDS011;6354;51.026;8.968;2022-08-03T08:05:26;2.88;;;2.60;;
12577;SDS011;6354;51.026;8.968;2022-08-03T08:07:54;2.90;;;2.53;;
12577;SDS011;6354;51.026;8.968;2022-08-03T08:10:24;3.15;;;2.85;;
12577;SDS011;6354;51.026;8.968;2022-08-03T08:12:52;3.50;;;3.20;;
12577;SDS011;6354;51.026;8.968;2022-08-03T08:15:20;4.88;;;2.72;;
12577;SDS011;6354;51.026;8.968;2022-08-03T08:17:49;5.03;;;2.80;;
12577;SDS011;6354;51.026;8.968;2022-08-03T08:20:19;4.03;;;3.03;;
12577;SDS011;6354;51.026;8.968;2022-08-03T08:22:57;4.22;;;2.90;;
12577;SDS011;6354;51.026;8.968;2022-08-03T08:25:29;6.03;;;3.10;;
12577;SDS011;6354;51.026;8.968;2022-08-03T08:27:58;3.30;;;2.75;;
12577;SDS011;6354;51.026;8.968;2022-08-03T08:30:48;4.47;;;2.97;;
12577;SDS011;6354;51.026;8.968;2022-08-03T08:33:17;3.30;;;3.00;;
12577;SDS011;6354;51.026;8.968;2022-08-03T08:35:49;4.40;;;2.80;;
12577;SDS011;6354;51.026;8.968;2022-08-03T08:38:18;4.10;;;2.97;;
12577;SDS011;6354;51.026;8.968;2022-08-03T08:40:48;4.35;;;3.00;;
12577;SDS011;6354;51.026;8.968;2022-08-03T08:43:16;4.15;;;3.28;;
12577;SDS011;6354;51.026;8.968;2022-08-03T08:45:44;5.45;;;3.13;;
12577;SDS011;6354;51.026;8.968;2022-08-03T08:48:14;3.13;;;2.60;;
12577;SDS011;6354;51.026;8.968;2022-08-03T08:50:44;4.30;;;2.90;;
12577;SDS011;6354;51.026;8.968;2022-08-03T08:53:13;2.97;;;2.78;;
12577;SDS011;6354;51.026;8.968;2022-08-03T08:55:45;5.03;;;2.70;;
12577;SDS011;6354;51.026;8.968;2022-08-03T08:58:27;5.20;;;2.80;;
12577;SDS011;6354;51.026;8.968;2022-08-03T09:00:56;6.75;;;2.80;;
12577;SDS011;6354;51.026;8.968;2022-08-03T09:03:25;6.53;;;2.72;;
12577;SDS011;6354;51.026;8.968;2022-08-03T09:05:56;4.53;;;2.75;;
12577;SDS011;6354;51.026;8.968;2022-08-03T09:08:28;3.58;;;2.80;;
12577;SDS011;6354;51.026;8.968;2022-08-03T09:10:57;3.45;;;2.78;;
12577;SDS011;6354;51.026;8.968;2022-08-03T09:13:26;3.22;;;2.80;;
12577;SDS011;6354;51.026;8.968;2022-08-03T09:16:08;4.50;;;2.92;;
12577;SDS011;6354;51.026;8.968;2022-08-03T09:18:38;3.60;;;2.70;;
12577;SDS011;6354;51.026;8.968;2022-08-03T09:21:18;2.88;;;2.60;;
12577;SDS011;6354;51.026;8.968;2022-08-03T09:24:03;4.57;;;2.65;;
12577;SDS011;6354;51.026;8.968;2022-08-03T09:26:48;2.67;;;2.47;;
12577;SDS011;6354;51.026;8.968;2022-08-03T09:29:20;2.60;;;2.40;;
12577;SDS011;6354;51.026;8.968;2022-08-03T09:31:49;3.38;;;2.10;;
12577;SDS011;6354;51.026;8.968;2022-08-03T09:34:27;3.67;;;2.40;;
12577;SDS011;6354;51.026;8.968;2022-08-03T09:36:56;2.95;;;2.25;;
12577;SDS011;6354;51.026;8.968;2022-08-03T09:39:25;4.75;;;2.08;;
12577;SDS011;6354;51.026;8.968;2022-08-03T09:42:08;3.05;;;2.13;;
12577;SDS011;6354;51.026;8.968;2022-08-03T09:44:42;2.75;;;2.30;;
12577;SDS011;6354;51.026;8.968;2022-08-03T09:47:11;3.13;;;2.60;;
12577;SDS011;6354;51.026;8.968;2022-08-03T09:49:41;3.50;;;2.10;;
12577;SDS011;6354;51.026;8.968;2022-08-03T09:52:22;3.08;;;2.47;;
12577;SDS011;6354;51.026;8.968;2022-08-03T09:55:15;2.92;;;2.17;;
12577;SDS011;6354;51.026;8.968;2022-08-03T09:58:05;2.55;;;2.35;;
12577;SDS011;6354;51.026;8.968;2022-08-03T10:00:45;5.45;;;2.35;;
12577;SDS011;6354;51.026;8.968;2022-08-03T10:03:20;6.40;;;2.50;;
12577;SDS011;6354;51.026;8.968;2022-08-03T10:05:49;3.85;;;2.45;;
12577;SDS011;6354;51.026;8.968;2022-08-03T10:08:24;5.75;;;2.50;;
12577;SDS011;6354;51.026;8.968;2022-08-03T10:10:52;3.88;;;2.38;;
12577;SDS011;6354;51.026;8.968;2022-08-03T10:13:20;3.53;;;2.60;;
12577;SDS011;6354;51.026;8.968;2022-08-03T10:15:50;4.28;;;2.22;;
12577;SDS011;6354;51.026;8.968;2022-08-03T10:18:38;3.42;;;2.30;;
12577;SDS011;6354;51.026;8.968;2022-08-03T10:21:07;5.30;;;2.30;;
12577;SDS011;6354;51.026;8.968;2022-08-03T10:23:40;3.88;;;2.28;;
12577;SDS011;6354;51.026;8.968;2022-08-03T10:26:08;3.28;;;2.30;;
12577;SDS011;6354;51.026;8.968;2022-08-03T10:28:41;2.97;;;2.38;;
12577;SDS011;6354;51.026;8.968;2022-08-03T10:31:16;4.88;;;2.20;;
12577;SDS011;6354;51.026;8.968;2022-08-03T10:33:48;2.15;;;1.95;;
12577;SDS011;6354;51.026;8.968;2022-08-03T10:36:19;4.00;;;2.00;;
12577;SDS011;6354;51.026;8.968;2022-08-03T10:38:51;2.50;;;2.30;;
12577;SDS011;6354;51.026;8.968;2022-08-03T10:41:19;2.85;;;2.20;;
12577;SDS011;6354;51.026;8.968;2022-08-03T10:43:49;2.35;;;2.10;;
12577;SDS011;6354;51.026;8.968;2022-08-03T10:46:22;4.18;;;2.35;;
12577;SDS011;6354;51.026;8.968;2022-08-03T10:48:50;5.63;;;2.35;;
12577;SDS011;6354;51.026;8.968;2022-08-03T10:51:19;2.95;;;1.90;;
12577;SDS011;6354;51.026;8.968;2022-08-03T10:53:47;2.58;;;2.00;;
12577;SDS011;6354;51.026;8.968;2022-08-03T10:56:39;1.77;;;1.65;;
12577;SDS011;6354;51.026;8.968;2022-08-03T11:05:40;6.03;;;2.05;;
12577;SDS011;6354;51.026;8.968;2022-08-03T11:08:18;1.75;;;1.65;;
12577;SDS011;6354;51.026;8.968;2022-08-03T11:10:52;2.75;;;1.70;;
12577;SDS011;6354;51.026;8.968;2022-08-03T11:13:22;6.65;;;2.00;;
12577;SDS011;6354;51.026;8.968;2022-08-03T11:15:54;4.07;;;1.90;;
12577;SDS011;6354;51.026;8.968;2022-08-03T11:18:28;4.00;;;1.88;;
12577;SDS011;6354;51.026;8.968;2022-08-03T11:20:57;2.53;;;1.98;;
12577;SDS011;6354;51.026;8.968;2022-08-03T11:23:39;3.50;;;2.08;;
12577;SDS011;6354;51.026;8.968;2022-08-03T11:26:31;2.80;;;2.00;;
12577;SDS011;6354;51.026;8.968;2022-08-03T11:31:54;2.88;;;2.00;;
12577;SDS011;6354;51.026;8.968;2022-08-03T11:34:23;16.52;;;2.78;;
12577;SDS011;6354;51.026;8.968;2022-08-03T11:39:51;2.30;;;2.20;;
12577;SDS011;6354;51.026;8.968;2022-08-03T11:42:38;2.67;;;1.95;;
12577;SDS011;6354;51.026;8.968;2022-08-03T11:45:13;2.47;;;2.05;;
12577;SDS011;6354;51.026;8.968;2022-08-03T11:47:42;4.10;;;2.15;;
12577;SDS011;6354;51.026;8.968;2022-08-03T11:50:18;3.13;;;2.10;;
12577;SDS011;6354;51.026;8.968;2022-08-03T11:52:47;5.75;;;2.10;;
12577;SDS011;6354;51.026;8.968;2022-08-03T11:55:16;2.75;;;1.88;;
12577;SDS011;6354;51.026;8.968;2022-08-03T11:57:47;2.63;;;2.05;;
12577;SDS011;6354;51.026;8.968;2022-08-03T12:00:36;8.23;;;2.22;;
12577;SDS011;6354;51.026;8.968;2022-08-03T12:03:06;3.35;;;1.88;;
12577;SDS011;6354;51.026;8.968;2022-08-03T12:05:44;6.03;;;2.10;;
12577;SDS011;6354;51.026;8.968;2022-08-03T12:08:20;2.72;;;1.95;;
12577;SDS011;6354;51.026;8.968;2022-08-03T12:10:58;5.57;;;2.08;;
12577;SDS011;6354;51.026;8.968;2022-08-03T12:13:35;3.65;;;2.10;;
12577;SDS011;6354;51.026;8.968;2022-08-03T12:16:24;3.08;;;2.30;;
12577;SDS011;6354;51.026;8.968;2022-08-03T12:18:54;4.90;;;2.33;;
12577;SDS011;6354;51.026;8.968;2022-08-03T12:21:25;2.35;;;2.15;;
12577;SDS011;6354;51.026;8.968;2022-08-03T12:23:56;2.28;;;2.08;;
12577;SDS011;6354;51.026;8.968;2022-08-03T12:26:26;5.32;;;2.17;;
12577;SDS011;6354;51.026;8.968;2022-08-03T12:28:55;3.83;;;2.15;;
12577;SDS011;6354;51.026;8.968;2022-08-03T12:31:23;2.88;;;2.22;;
12577;SDS011;6354;51.026;8.968;2022-08-03T12:33:56;3.20;;;2.40;;
12577;SDS011;6354;51.026;8.968;2022-08-03T12:36:27;3.20;;;2.28;;
12577;SDS011;6354;51.026;8.968;2022-08-03T12:38:56;3.22;;;2.33;;
12577;SDS011;6354;51.026;8.968;2022-08-03T12:41:26;3.10;;;2.08;;
12577;SDS011;6354;51.026;8.968;2022-08-03T12:43:56;2.72;;;2.00;;
12577;SDS011;6354;51.026;8.968;2022-08-03T12:46:28;2.90;;;2.10;;
12577;SDS011;6354;51.026;8.968;2022-08-03T12:48:59;3.00;;;1.98;;
12577;SDS011;6354;51.026;8.968;2022-08-03T12:51:31;3.85;;;2.20;;
12577;SDS011;6354;51.026;8.968;2022-08-03T12:53:59;4.00;;;2.33;;
12577;SDS011;6354;51.026;8.968;2022-08-03T12:56:28;3.10;;;2.17;;
12577;SDS011;6354;51.026;8.968;2022-08-03T12:58:56;3.45;;;2.10;;
12577;SDS011;6354;51.026;8.968;2022-08-03T13:01:24;3.40;;;2.20;;
12577;SDS011;6354;51.026;8.968;2022-08-03T13:03:57;1.95;;;1.85;;
12577;SDS011;6354;51.026;8.968;2022-08-03T13:06:26;2.97;;;1.80;;
12577;SDS011;6354;51.026;8.968;2022-08-03T13:09:02;4.82;;;2.08;;
12577;SDS011;6354;51.026;8.968;2022-08-03T13:11:32;3.35;;;2.05;;
12577;SDS011;6354;51.026;8.968;2022-08-03T13:14:21;2.42;;;2.22;;
12577;SDS011;6354;51.026;8.968;2022-08-03T13:16:49;2.38;;;2.10;;
12577;SDS011;6354;51.026;8.968;2022-08-03T13:19:17;3.40;;;2.40;;
12577;SDS011;6354;51.026;8.968;2022-08-03T13:21:45;6.03;;;2.33;;
12577;SDS011;6354;51.026;8.968;2022-08-03T13:24:31;3.72;;;2.30;;
12577;SDS011;6354;51.026;8.968;2022-08-03T13:26:59;2.45;;;2.00;;
12577;SDS011;6354;51.026;8.968;2022-08-03T13:29:48;3.75;;;2.00;;
12577;SDS011;6354;51.026;8.968;2022-08-03T13:32:16;2.95;;;2.20;;
12577;SDS011;6354;51.026;8.968;2022-08-03T13:34:44;2.88;;;1.92;;
12577;SDS011;6354;51.026;8.968;2022-08-03T13:37:12;2.22;;;1.88;;
12577;SDS011;6354;51.026;8.968;2022-08-03T13:39:42;3.00;;;2.00;;
12577;SDS011;6354;51.026;8.968;2022-08-03T13:42:25;6.53;;;2.40;;
12577;SDS011;6354;51.026;8.968;2022-08-03T13:44:54;2.95;;;1.95;;
12577;SDS011;6354;51.026;8.968;2022-08-03T13:47:22;4.43;;;2.10;;
12577;SDS011;6354;51.026;8.968;2022-08-03T13:49:50;4.72;;;1.85;;
12577;SDS011;6354;51.026;8.968;2022-08-03T13:52:27;2.60;;;1.88;;
12577;SDS011;6354;51.026;8.968;2022-08-03T13:54:57;3.00;;;1.80;;
12577;SDS011;6354;51.026;8.968;2022-08-03T13:57:25;4.00;;;1.88;;
12577;SDS011;6354;51.026;8.968;2022-08-03T14:00:14;3.13;;;1.92;;
12577;SDS011;6354;51.026;8.968;2022-08-03T14:02:54;3.20;;;2.10;;
12577;SDS011;6354;51.026;8.968;2022-08-03T14:05:30;5.18;;;2.22;;
12577;SDS011;6354;51.026;8.968;2022-08-03T14:07:59;2.20;;;2.00;;
12577;SDS011;6354;51.026;8.968;2022-08-03T14:10:31;2.50;;;2.00;;
12577;SDS011;6354;51.026;8.968;2022-08-03T14:13:01;3.00;;;2.03;;
12577;SDS011;6354;51.026;8.968;2022-08-03T14:15:29;4.20;;;1.92;;
12577;SDS011;6354;51.026;8.968;2022-08-03T14:18:03;5.07;;;1.80;;
12577;SDS011;6354;51.026;8.968;2022-08-03T14:20:38;3.58;;;1.90;;
12577;SDS011;6354;51.026;8.968;2022-08-03T14:23:15;3.67;;;1.83;;
12577;SDS011;6354;51.026;8.968;2022-08-03T14:25:45;2.72;;;1.90;;
12577;SDS011;6354;51.026;8.968;2022-08-03T14:28:19;3.60;;;2.05;;
12577;SDS011;6354;51.026;8.968;2022-08-03T14:30:49;3.60;;;1.80;;
12577;SDS011;6354;51.026;8.968;2022-08-03T14:33:17;2.47;;;2.00;;
12577;SDS011;6354;51.026;8.968;2022-08-03T14:35:46;1.98;;;1.88;;
12577;SDS011;6354;51.026;8.968;2022-08-03T14:38:14;3.40;;;2.25;;
12577;SDS011;6354;51.026;8.968;2022-08-03T14:40:44;3.92;;;1.77;;
12577;SDS011;6354;51.026;8.968;2022-08-03T14:43:13;2.25;;;1.90;;
12577;SDS011;6354;51.026;8.968;2022-08-03T14:45:43;4.43;;;2.30;;
12577;SDS011;6354;51.026;8.968;2022-08-03T14:48:11;3.75;;;1.90;;
12577;SDS011;6354;51.026;8.968;2022-08-03T14:50:59;2.00;;;1.80;;
12577;SDS011;6354;51.026;8.968;2022-08-03T14:53:27;2.03;;;1.73;;
12577;SDS011;6354;51.026;8.968;2022-08-03T14:55:57;3.92;;;1.88;;
12577;SDS011;6354;51.026;8.968;2022-08-03T14:58:25;2.05;;;1.70;;
12577;SDS011;6354;51.026;8.968;2022-08-03T15:00:53;1.92;;;1.83;;
12577;SDS011;6354;51.026;8.968;2022-08-03T15:03:22;2.58;;;1.75;;
12577;SDS011;6354;51.026;8.968;2022-08-03T15:05:51;2.85;;;1.40;;
12577;SDS011;6354;51.026;8.968;2022-08-03T15:08:20;1.90;;;1.70;;
12577;SDS011;6354;51.026;8.968;2022-08-03T15:10:49;5.15;;;1.90;;
12577;SDS011;6354;51.026;8.968;2022-08-03T15:13:20;1.98;;;1.85;;
12577;SDS011;6354;51.026;8.968;2022-08-03T15:15:48;4.22;;;1.83;;
12577;SDS011;6354;51.026;8.968;2022-08-03T15:18:17;2.53;;;1.70;;
12577;SDS011;6354;51.026;8.968;2022-08-03T15:20:45;1.92;;;1.70;;
12577;SDS011;6354;51.026;8.968;2022-08-03T15:23:15;2.40;;;1.73;;
12577;SDS011;6354;51.026;8.968;2022-08-03T15:25:44;1.80;;;1.70;;
12577;SDS011;6354;51.026;8.968;2022-08-03T15:28:34;4.90;;;1.85;;
12577;SDS011;6354;51.026;8.968;2022-08-03T15:31:03;9.45;;;2.00;;
12577;SDS011;6354;51.026;8.968;2022-08-03T15:33:31;4.50;;;2.03;;
12577;SDS011;6354;51.026;8.968;2022-08-03T15:36:00;2.08;;;1.75;;
12577;SDS011;6354;51.026;8.968;2022-08-03T15:38:29;3.35;;;2.03;;
12577;SDS011;6354;51.026;8.968;2022-08-03T15:40:57;4.07;;;2.08;;
12577;SDS011;6354;51.026;8.968;2022-08-03T15:43:25;3.33;;;1.98;;